sensor_id;sensor_type;location;lat;lon;timestamp;pressure;altitude;pressure_sealevel;temperature;humidity
15558;BME280;7880;50.110;9.372;2023-12-20T00:00:39;3.458671004534699;;;3.562;100.0
15558;BME280;7880;50.110;9.372;2023-12-20T00:05:44;3.468754793703556;;;3.625;100.0
15558;BME280;7880;50.110;9.372;2023-12-20T00:10:56;3.4788385840365663;;;3.625;100.0
15558;BME280;7880;50.110;9.372;2023-12-20T00:16:07;3.493964271718869;;;3.625;100.0
15558;BME280;7880;50.110;9.372;2023-12-20T00:21:16;3.468754793703556;;;3.625;100.0
15558;BME280;7880;50.110;9.372;2023-12-20T00:26:16;3.448587216529995;;;3.562;100.0
15558;BME280;7880;50.110;9.372;2023-12-20T00:31:20;3.458671004534699;;;3.562;100.0
15558;BME280;7880;50.110;9.372;2023-12-20T00:36:33;3.403210184915224;;;3.562;100.0
15558;BME280;7880;50.110;9.372;2023-12-20T00:41:27;3.418335859500803;;;3.562;100.0
15558;BME280;7880;50.110;9.372;2023-12-20T00:46:43;3.448587216529995;;;3.625;100.0
15558;BME280;7880;50.110;9.372;2023-12-20T00:51:52;3.458671004534699;;;3.625;100.0
15558;BME280;7880;50.110;9.372;2023-12-20T00:56:58;3.483880479639629;;;3.625;100.0
15558;BME280;7880;50.110;9.372;2023-12-20T01:02:00;3.4788385840365663;;;3.625;100.0
15558;BME280;7880;50.110;9.372;2023-12-20T01:07:02;3.5191737570101393;;;3.625;100.0
15558;BME280;7880;50.110;9.372;2023-12-20T01:12:06;3.48892237553373;;;3.625;100.0
15558;BME280;7880;50.110;9.372;2023-12-20T01:17:12;3.5242156549415085;;;3.625;100.0
15558;BME280;7880;50.110;9.372;2023-12-20T01:22:17;3.5090899620205165;;;3.625;100.0
15558;BME280;7880;50.110;9.372;2023-12-20T01:27:18;3.483880479639629;;;3.625;100.0
15558;BME280;7880;50.110;9.372;2023-12-20T01:32:56;3.433461536705727;;;3.562;100.0
15558;BME280;7880;50.110;9.372;2023-12-20T01:37:08;3.408252076152712;;;3.562;100.0
15558;BME280;7880;50.110;9.372;2023-12-20T01:42:14;3.408252076152712;;;3.562;100.0
15558;BME280;7880;50.110;9.372;2023-12-20T01:47:33;3.3780007330933586;;;3.562;100.0
15558;BME280;7880;50.110;9.372;2023-12-20T01:52:54;3.393126403313363;;;3.562;100.0
15558;BME280;7880;50.110;9.372;2023-12-20T01:57:44;3.4132939676812386;;;3.562;100.0
15558;BME280;7880;50.110;9.372;2023-12-20T02:03:03;3.403210184915224;;;3.5;100.0
15558;BME280;7880;50.110;9.372;2023-12-20T02:07:55;3.393126403313363;;;3.562;100.0
15558;BME280;7880;50.110;9.372;2023-12-20T02:13:21;3.362875065492699;;;3.5;100.0
15558;BME280;7880;50.110;9.372;2023-12-20T02:18:48;3.3275818512775004;;;3.5;100.0
15558;BME280;7880;50.110;9.372;2023-12-20T02:24:18;3.332623738149414;;;3.5;100.0
15558;BME280;7880;50.110;9.372;2023-12-20T02:29:21;3.322539964696625;;;3.5;100.0
15558;BME280;7880;50.110;9.372;2023-12-20T02:34:28;3.3527912885474507;;;3.5;100.0
15558;BME280;7880;50.110;9.372;2023-12-20T02:39:31;3.332623738149414;;;3.5;100.0
15558;BME280;7880;50.110;9.372;2023-12-20T02:44:41;3.322539964696625;;;3.437;100.0
15558;BME280;7880;50.110;9.372;2023-12-20T02:49:57;3.287246766779572;;;3.437;100.0
15558;BME280;7880;50.110;9.372;2023-12-20T02:55:04;3.31245619240799;;;3.437;100.0
15558;BME280;7880;50.110;9.372;2023-12-20T03:00:25;3.3023724212835077;;;3.437;100.0
15558;BME280;7880;50.110;9.372;2023-12-20T03:05:37;3.3376656253123658;;;3.5;100.0
15558;BME280;7880;50.110;9.372;2023-12-20T03:11:04;3.347749400511384;;;3.5;100.0
15558;BME280;7880;50.110;9.372;2023-12-20T03:15:45;3.3275818512775004;;;3.5;100.0
15558;BME280;7880;50.110;9.372;2023-12-20T03:21:01;3.362875065492699;;;3.5;100.0
15558;BME280;7880;50.110;9.372;2023-12-20T03:26:19;3.362875065492699;;;3.5;100.0
15558;BME280;7880;50.110;9.372;2023-12-20T03:31:30;3.347749400511384;;;3.5;100.0
15558;BME280;7880;50.110;9.372;2023-12-20T03:36:40;3.3427075127663555;;;3.5;100.0
15558;BME280;7880;50.110;9.372;2023-12-20T03:42:04;3.3527912885474507;;;3.5;100.0
15558;BME280;7880;50.110;9.372;2023-12-20T03:47:03;3.362875065492699;;;3.5;100.0
15558;BME280;7880;50.110;9.372;2023-12-20T03:52:23;3.3729588436021003;;;3.5;100.0
15558;BME280;7880;50.110;9.372;2023-12-20T03:57:51;3.3174980784067882;;;3.5;100.0
15558;BME280;7880;50.110;9.372;2023-12-20T04:03:00;3.3527912885474507;;;3.5;100.0
15558;BME280;7880;50.110;9.372;2023-12-20T04:07:50;3.322539964696625;;;3.5;100.0
15558;BME280;7880;50.110;9.372;2023-12-20T04:13:23;3.3578331768745557;;;3.5;100.0
15558;BME280;7880;50.110;9.372;2023-12-20T04:18:46;3.332623738149414;;;3.5;100.0
15558;BME280;7880;50.110;9.372;2023-12-20T04:23:45;3.3275818512775004;;;3.5;100.0
15558;BME280;7880;50.110;9.372;2023-12-20T04:28:49;3.322539964696625;;;3.5;100.0
15558;BME280;7880;50.110;9.372;2023-12-20T04:33:54;3.2620373484271115;;;3.375;100.0
15558;BME280;7880;50.110;9.372;2023-12-20T04:38:55;3.2670792315155266;;;3.437;100.0
15558;BME280;7880;50.110;9.372;2023-12-20T04:44:30;3.2922886513231786;;;3.437;100.0
15558;BME280;7880;50.110;9.372;2023-12-20T04:49:16;3.282204882527003;;;3.437;100.0
15558;BME280;7880;50.110;9.372;2023-12-20T04:54:30;3.322539964696625;;;3.437;100.0
15558;BME280;7880;50.110;9.372;2023-12-20T04:59:23;3.31245619240799;;;3.437;100.0
15558;BME280;7880;50.110;9.372;2023-12-20T05:04:26;3.3578331768745557;;;3.437;100.0
15558;BME280;7880;50.110;9.372;2023-12-20T05:09:31;3.3780007330933586;;;3.5;100.0
15558;BME280;7880;50.110;9.372;2023-12-20T05:14:40;3.433461536705727;;;3.5;100.0
15558;BME280;7880;50.110;9.372;2023-12-20T05:19:43;3.473796688724542;;;3.5;100.0
15558;BME280;7880;50.110;9.372;2023-12-20T05:25:06;3.514131859369809;;;3.5;100.0
15558;BME280;7880;50.110;9.372;2023-12-20T05:30:40;3.5897603545337917;;;3.562;100.0
15558;BME280;7880;50.110;9.372;2023-12-20T05:35:33;3.625053674686933;;;3.625;100.0
15558;BME280;7880;50.110;9.372;2023-12-20T05:40:25;3.6401793876895683;;;3.625;100.0
15558;BME280;7880;50.110;9.372;2023-12-20T05:45:30;3.6401793876895683;;;3.625;100.0
15558;BME280;7880;50.110;9.372;2023-12-20T05:50:48;3.655305103311548;;;3.625;100.0
15558;BME280;7880;50.110;9.372;2023-12-20T05:56:17;3.655305103311548;;;3.625;100.0
15558;BME280;7880;50.110;9.372;2023-12-20T06:01:14;3.705724174302304;;;3.625;100.0
15558;BME280;7880;50.110;9.372;2023-12-20T06:06:46;3.665388915181393;;;3.625;100.0
15558;BME280;7880;50.110;9.372;2023-12-20T06:11:41;3.6099279643036426;;;3.562;100.0
15558;BME280;7880;50.110;9.372;2023-12-20T06:16:51;3.5595089486101643;;;3.5;100.0
15558;BME280;7880;50.110;9.372;2023-12-20T06:21:54;3.5090899620205165;;;3.5;100.0
15558;BME280;7880;50.110;9.372;2023-12-20T06:27:12;3.423377751611406;;;3.5;100.0
15558;BME280;7880;50.110;9.372;2023-12-20T06:32:14;3.473796688724542;;;3.437;100.0
15558;BME280;7880;50.110;9.372;2023-12-20T06:37:18;3.4132939676812386;;;3.375;100.0
15558;BME280;7880;50.110;9.372;2023-12-20T06:42:25;3.4435453229642006;;;3.437;100.0
15558;BME280;7880;50.110;9.372;2023-12-20T06:47:27;3.448587216529995;;;3.437;100.0
15558;BME280;7880;50.110;9.372;2023-12-20T06:52:41;3.418335859500803;;;3.437;100.0
15558;BME280;7880;50.110;9.372;2023-12-20T06:57:40;3.4132939676812386;;;3.437;100.0
15558;BME280;7880;50.110;9.372;2023-12-20T07:02:44;3.433461536705727;;;3.375;100.0
15558;BME280;7880;50.110;9.372;2023-12-20T07:07:51;3.408252076152712;;;3.375;100.0
15558;BME280;7880;50.110;9.372;2023-12-20T07:13:08;3.3427075127663555;;;3.375;100.0
15558;BME280;7880;50.110;9.372;2023-12-20T07:18:23;3.287246766779572;;;3.312;100.0
15558;BME280;7880;50.110;9.372;2023-12-20T07:23:30;3.282204882527003;;;3.25;100.0
15558;BME280;7880;50.110;9.372;2023-12-20T07:28:35;3.181367258593673;;;3.187;100.0
15558;BME280;7880;50.110;9.372;2023-12-20T07:33:35;3.1561578708002345;;;3.125;100.0
15558;BME280;7880;50.110;9.372;2023-12-20T07:38:44;3.241869818983832;;;3.187;100.0
15558;BME280;7880;50.110;9.372;2023-12-20T07:43:45;3.2922886513231786;;;3.25;100.0
15558;BME280;7880;50.110;9.372;2023-12-20T07:48:49;3.2771629985654727;;;3.25;100.0
15558;BME280;7880;50.110;9.372;2023-12-20T07:53:54;3.2620373484271115;;;3.25;100.0
15558;BME280;7880;50.110;9.372;2023-12-20T07:59:04;3.2620373484271115;;;3.25;100.0
15558;BME280;7880;50.110;9.372;2023-12-20T08:04:00;3.2116185335500633;;;3.25;100.0
15558;BME280;7880;50.110;9.372;2023-12-20T08:09:08;3.1712835026031825;;;3.25;100.0
15558;BME280;7880;50.110;9.372;2023-12-20T08:14:08;3.2217022941971662;;;3.25;100.0
15558;BME280;7880;50.110;9.372;2023-12-20T08:19:14;3.206576653663069;;;3.25;100.0
15558;BME280;7880;50.110;9.372;2023-12-20T08:24:20;3.231786056008423;;;3.25;100.0
15558;BME280;7880;50.110;9.372;2023-12-20T08:29:18;3.2116185335500633;;;3.25;100.0
15558;BME280;7880;50.110;9.372;2023-12-20T08:34:28;3.2267441749572754;;;3.25;100.0
15558;BME280;7880;50.110;9.372;2023-12-20T08:39:34;3.2217022941971662;;;3.25;100.0
15558;BME280;7880;50.110;9.372;2023-12-20T08:44:31;3.1964928947621956;;;3.25;100.0
15558;BME280;7880;50.110;9.372;2023-12-20T08:49:37;3.2922886513231786;;;3.25;100.0
15558;BME280;7880;50.110;9.372;2023-12-20T08:54:37;3.2267441749572754;;;3.312;100.0
15558;BME280;7880;50.110;9.372;2023-12-20T08:59:57;3.2217022941971662;;;3.312;100.0
15558;BME280;7880;50.110;9.372;2023-12-20T09:04:51;3.2469117009080946;;;3.312;100.0
15558;BME280;7880;50.110;9.372;2023-12-20T09:09:56;3.1561578708002345;;;3.25;100.0
15558;BME280;7880;50.110;9.372;2023-12-20T09:14:57;3.1914510157483162;;;3.25;100.0
15558;BME280;7880;50.110;9.372;2023-12-20T09:20:00;3.2116185335500633;;;3.25;100.0
15558;BME280;7880;50.110;9.372;2023-12-20T09:24:59;3.241869818983832;;;3.25;100.0
15558;BME280;7880;50.110;9.372;2023-12-20T09:30:14;3.3578331768745557;;;3.375;100.0
15558;BME280;7880;50.110;9.372;2023-12-20T09:35:16;3.31245619240799;;;3.312;100.0
15558;BME280;7880;50.110;9.372;2023-12-20T09:40:18;3.3729588436021003;;;3.375;100.0
15558;BME280;7880;50.110;9.372;2023-12-20T09:45:20;3.433461536705727;;;3.437;100.0
15558;BME280;7880;50.110;9.372;2023-12-20T09:50:27;3.433461536705727;;;3.437;100.0
15558;BME280;7880;50.110;9.372;2023-12-20T09:55:30;3.362875065492699;;;3.437;100.0
15558;BME280;7880;50.110;9.372;2023-12-20T10:00:31;3.38808451294899;;;3.437;100.0
15558;BME280;7880;50.110;9.372;2023-12-20T10:05:39;3.322539964696625;;;3.437;100.0
15558;BME280;7880;50.110;9.372;2023-12-20T10:10:37;3.38808451294899;;;3.437;100.0
15558;BME280;7880;50.110;9.372;2023-12-20T10:15:49;3.3578331768745557;;;3.437;100.0
15558;BME280;7880;50.110;9.372;2023-12-20T10:20:44;3.448587216529995;;;3.437;100.0
15558;BME280;7880;50.110;9.372;2023-12-20T10:25:56;3.4435453229642006;;;3.437;100.0
15558;BME280;7880;50.110;9.372;2023-12-20T10:31:02;3.453629110386828;;;3.437;100.0
15558;BME280;7880;50.110;9.372;2023-12-20T10:36:20;3.4637128989736086;;;3.5;100.0
15558;BME280;7880;50.110;9.372;2023-12-20T10:41:09;3.4788385840365663;;;3.5;100.0
15558;BME280;7880;50.110;9.372;2023-12-20T10:46:15;3.5342994516773616;;;3.562;100.0
15558;BME280;7880;50.110;9.372;2023-12-20T10:51:20;3.483880479639629;;;3.562;100.0
15558;BME280;7880;50.110;9.372;2023-12-20T10:56:32;3.549425148963928;;;3.625;100.0
15558;BME280;7880;50.110;9.372;2023-12-20T11:01:28;3.5847184528189246;;;3.625;100.0
15558;BME280;7880;50.110;9.372;2023-12-20T11:06:45;3.6401793876895683;;;3.625;100.0
15558;BME280;7880;50.110;9.372;2023-12-20T11:11:52;3.6905984499491753;;;3.812;100.0
15558;BME280;7880;50.110;9.372;2023-12-20T11:16:41;3.7359756308665966;;;3.75;100.0
15558;BME280;7880;50.110;9.372;2023-12-20T11:21:42;3.725891810847679;;;3.75;100.0
15558;BME280;7880;50.110;9.372;2023-12-20T11:26:47;3.8569815618975554;;;3.875;100.0
15558;BME280;7880;50.110;9.372;2023-12-20T11:32:02;3.8821911519626155;;;3.937;100.0
15558;BME280;7880;50.110;9.372;2023-12-20T11:36:59;4.209916484920541;;;4.375;100.0
15558;BME280;7880;50.110;9.372;2023-12-20T11:42:04;3.9074007493036333;;;4.0;100.0
15558;BME280;7880;50.110;9.372;2023-12-20T11:47:03;3.9628618890652434;;;4.0;100.0
15558;BME280;7880;50.110;9.372;2023-12-20T11:51:40;3.9326103539206088;;;4.0;100.0
15558;BME280;7880;50.110;9.372;2023-12-20T11:56:41;3.892274990025908;;;3.937;100.0
15558;BME280;7880;50.110;9.372;2023-12-20T12:01:48;3.9174845902773088;;;3.937;100.0
15558;BME280;7880;50.110;9.372;2023-12-20T12:06:49;3.9225265112007035;;;4.0;100.0
15558;BME280;7880;50.110;9.372;2023-12-20T12:11:52;3.957819965813542;;;4.0;100.0
15558;BME280;7880;50.110;9.372;2023-12-20T12:16:56;3.9830295849824324;;;4.062;100.0
15558;BME280;7880;50.110;9.372;2023-12-20T12:22:05;3.9981553599762263;;;4.062;100.0
15558;BME280;7880;50.110;9.372;2023-12-20T12:27:13;4.008239211427281;;;4.062;100.0
15558;BME280;7880;50.110;9.372;2023-12-20T12:32:15;3.9779876605665776;;;4.062;100.0
15558;BME280;7880;50.110;9.372;2023-12-20T12:37:13;3.9981553599762263;;;4.062;100.0
15558;BME280;7880;50.110;9.372;2023-12-20T12:42:28;3.937652275717119;;;4.062;100.0
15558;BME280;7880;50.110;9.372;2023-12-20T12:47:20;3.9477361201832535;;;4.0;100.0
15558;BME280;7880;50.110;9.372;2023-12-20T12:52:24;3.9477361201832535;;;4.0;100.0
15558;BME280;7880;50.110;9.372;2023-12-20T12:57:25;3.957819965813542;;;4.0;100.0
15558;BME280;7880;50.110;9.372;2023-12-20T13:02:34;3.937652275717119;;;4.0;100.0
15558;BME280;7880;50.110;9.372;2023-12-20T13:07:33;3.927568432415137;;;4.0;100.0
15558;BME280;7880;50.110;9.372;2023-12-20T13:12:37;3.9426941978046672;;;4.0;100.0
15558;BME280;7880;50.110;9.372;2023-12-20T13:17:40;3.9074007493036333;;;4.0;100.0
15558;BME280;7880;50.110;9.372;2023-12-20T13:22:44;3.9477361201832535;;;4.0;100.0
15558;BME280;7880;50.110;9.372;2023-12-20T13:27:47;3.9527780428528785;;;4.0;100.0
15558;BME280;7880;50.110;9.372;2023-12-20T13:32:57;4.003197285556235;;;4.062;100.0
15558;BME280;7880;50.110;9.372;2023-12-20T13:37:56;4.0485746288730295;;;4.062;100.0
15558;BME280;7880;50.110;9.372;2023-12-20T13:42:58;4.10907778996625;;;4.125;100.0
15558;BME280;7880;50.110;9.372;2023-12-20T13:48:02;4.08891006494523;;;4.187;100.0
15558;BME280;7880;50.110;9.372;2023-12-20T13:53:12;4.073784274235368;;;4.187;100.0
15558;BME280;7880;50.110;9.372;2023-12-20T13:58:07;4.068742344580824;;;4.187;100.0
15558;BME280;7880;50.110;9.372;2023-12-20T14:03:17;4.068742344580824;;;4.187;100.0
15558;BME280;7880;50.110;9.372;2023-12-20T14:08:14;4.08891006494523;;;4.187;100.0
15558;BME280;7880;50.110;9.372;2023-12-20T14:13:17;4.10907778996625;;;4.187;100.0
15558;BME280;7880;50.110;9.372;2023-12-20T14:18:21;4.05865848614485;;;4.187;100.0
15558;BME280;7880;50.110;9.372;2023-12-20T14:23:25;4.043532700673677;;;4.125;100.0
15558;BME280;7880;50.110;9.372;2023-12-20T14:28:28;4.018323064042488;;;4.125;100.0
15558;BME280;7880;50.110;9.372;2023-12-20T14:33:37;3.993113434687257;;;4.062;100.0
15558;BME280;7880;50.110;9.372;2023-12-20T14:38:35;3.9830295849824324;;;4.062;100.0
15558;BME280;7880;50.110;9.372;2023-12-20T14:43:39;3.993113434687257;;;4.062;100.0
15558;BME280;7880;50.110;9.372;2023-12-20T14:48:43;3.9880715096893256;;;4.062;100.0
15558;BME280;7880;50.110;9.372;2023-12-20T14:53:47;3.9527780428528785;;;4.062;100.0
15558;BME280;7880;50.110;9.372;2023-12-20T14:58:52;3.9880715096893256;;;4.062;100.0
15558;BME280;7880;50.110;9.372;2023-12-20T15:03:53;3.9779876605665776;;;4.062;100.0
15558;BME280;7880;50.110;9.372;2023-12-20T15:08:57;3.9880715096893256;;;4.062;100.0
15558;BME280;7880;50.110;9.372;2023-12-20T15:14:04;4.008239211427281;;;4.062;100.0
15558;BME280;7880;50.110;9.372;2023-12-20T15:19:06;3.9981553599762263;;;4.062;100.0
15558;BME280;7880;50.110;9.372;2023-12-20T15:24:14;4.008239211427281;;;4.125;100.0
15558;BME280;7880;50.110;9.372;2023-12-20T15:29:13;4.0485746288730295;;;4.125;100.0
15558;BME280;7880;50.110;9.372;2023-12-20T15:34:18;3.993113434687257;;;4.125;100.0
15558;BME280;7880;50.110;9.372;2023-12-20T15:39:19;4.008239211427281;;;4.125;100.0
15558;BME280;7880;50.110;9.372;2023-12-20T15:44:23;4.023364990786649;;;4.125;100.0
15558;BME280;7880;50.110;9.372;2023-12-20T15:49:29;4.038490772765362;;;4.125;100.0
15558;BME280;7880;50.110;9.372;2023-12-20T15:54:37;4.008239211427281;;;4.125;100.0
15558;BME280;7880;50.110;9.372;2023-12-20T15:59:38;3.9880715096893256;;;4.125;100.0
15558;BME280;7880;50.110;9.372;2023-12-20T16:04:37;4.003197285556235;;;4.125;100.0
15558;BME280;7880;50.110;9.372;2023-12-20T16:09:41;4.018323064042488;;;4.062;100.0
15558;BME280;7880;50.110;9.372;2023-12-20T16:14:44;3.9880715096893256;;;4.062;100.0
15558;BME280;7880;50.110;9.372;2023-12-20T16:19:51;3.957819965813542;;;4.125;100.0
15558;BME280;7880;50.110;9.372;2023-12-20T16:24:53;3.9679038126079833;;;4.062;100.0
15558;BME280;7880;50.110;9.372;2023-12-20T16:30:07;3.957819965813542;;;4.062;100.0
15558;BME280;7880;50.110;9.372;2023-12-20T16:35:04;3.9779876605665776;;;4.062;100.0
15558;BME280;7880;50.110;9.372;2023-12-20T16:40:07;3.9679038126079833;;;4.062;100.0
15558;BME280;7880;50.110;9.372;2023-12-20T16:45:09;3.972945736441761;;;4.062;100.0
15558;BME280;7880;50.110;9.372;2023-12-20T16:50:16;3.9679038126079833;;;4.062;100.0
15558;BME280;7880;50.110;9.372;2023-12-20T16:53:52;3.9880715096893256;;;4.062;100.0
15558;BME280;7880;50.110;9.372;2023-12-20T16:58:54;3.9426941978046672;;;4.062;100.0
15558;BME280;7880;50.110;9.372;2023-12-20T17:03:56;3.927568432415137;;;4.062;100.0
15558;BME280;7880;50.110;9.372;2023-12-20T17:09:13;3.957819965813542;;;4.062;100.0
15558;BME280;7880;50.110;9.372;2023-12-20T17:14:05;3.993113434687257;;;4.062;100.0
15558;BME280;7880;50.110;9.372;2023-12-20T17:19:08;3.9679038126079833;;;4.062;100.0
15558;BME280;7880;50.110;9.372;2023-12-20T17:24:11;3.9779876605665776;;;4.062;100.0
15558;BME280;7880;50.110;9.372;2023-12-20T17:29:14;3.9628618890652434;;;4.062;100.0
15558;BME280;7880;50.110;9.372;2023-12-20T17:34:18;3.9779876605665776;;;4.062;100.0
15558;BME280;7880;50.110;9.372;2023-12-20T17:39:23;3.9880715096893256;;;4.125;100.0
15558;BME280;7880;50.110;9.372;2023-12-20T17:44:31;4.013281137589365;;;4.125;100.0
15558;BME280;7880;50.110;9.372;2023-12-20T17:49:35;4.0485746288730295;;;4.125;100.0
15558;BME280;7880;50.110;9.372;2023-12-20T17:54:36;4.043532700673677;;;4.125;100.0
15558;BME280;7880;50.110;9.372;2023-12-20T17:59:42;4.0485746288730295;;;4.125;100.0
15558;BME280;7880;50.110;9.372;2023-12-20T18:04:45;4.05865848614485;;;4.187;100.0
15558;BME280;7880;50.110;9.372;2023-12-20T18:09:56;4.068742344580824;;;4.187;100.0
15558;BME280;7880;50.110;9.372;2023-12-20T18:14:53;4.104035858274438;;;4.187;100.0
15558;BME280;7880;50.110;9.372;2023-12-20T18:19:54;4.104035858274438;;;4.187;100.0
15558;BME280;7880;50.110;9.372;2023-12-20T18:25:01;4.08891006494523;;;4.187;100.0
15558;BME280;7880;50.110;9.372;2023-12-20T18:30:07;4.08891006494523;;;4.187;100.0
15558;BME280;7880;50.110;9.372;2023-12-20T18:35:08;4.1242035867879165;;;4.187;100.0
15558;BME280;7880;50.110;9.372;2023-12-20T18:40:14;4.1141197219491;;;4.187;100.0
15558;BME280;7880;50.110;9.372;2023-12-20T18:45:20;4.139329386228928;;;4.25;100.0
15558;BME280;7880;50.110;9.372;2023-12-20T18:50:18;4.194790673255921;;;4.312;100.0
15558;BME280;7880;50.110;9.372;2023-12-20T18:55:28;4.204874547407963;;;4.312;100.0
15558;BME280;7880;50.110;9.372;2023-12-20T19:00:36;4.2401681161078155;;;4.312;100.0
15558;BME280;7880;50.110;9.372;2023-12-20T19:05:30;4.27041975777247;;;4.375;100.0
15558;BME280;7880;50.110;9.372;2023-12-20T19:10:35;4.265377816767431;;;4.375;100.0
15558;BME280;7880;50.110;9.372;2023-12-20T19:15:36;4.300671409914503;;;4.437;100.0
15558;BME280;7880;50.110;9.372;2023-12-20T19:20:41;4.330923072533915;;;4.437;100.0
15558;BME280;7880;50.110;9.372;2023-12-20T19:25:43;4.330923072533915;;;4.437;100.0
15558;BME280;7880;50.110;9.372;2023-12-20T19:30:54;4.330923072533915;;;4.437;100.0
15558;BME280;7880;50.110;9.372;2023-12-20T19:36:34;4.386384481214918;;;4.437;100.0
15558;BME280;7880;50.110;9.372;2023-12-20T19:41:14;4.3813425335159994;;;4.437;100.0
15558;BME280;7880;50.110;9.372;2023-12-20T19:46:49;4.315797239914536;;;4.437;100.0
15558;BME280;7880;50.110;9.372;2023-12-20T19:51:38;4.351090853434289;;;4.437;100.0
15558;BME280;7880;50.110;9.372;2023-12-20T19:56:48;4.3964683774858715;;;4.5;100.0
15558;BME280;7880;50.110;9.372;2023-12-20T20:01:45;4.361174745630706;;;4.437;100.0
15558;BME280;7880;50.110;9.372;2023-12-20T20:06:47;4.401510326057905;;;4.5;100.0
15558;BME280;7880;50.110;9.372;2023-12-20T20:11:51;4.401510326057905;;;4.5;100.0
15558;BME280;7880;50.110;9.372;2023-12-20T20:17:26;4.421678123256425;;;4.5;100.0
15558;BME280;7880;50.110;9.372;2023-12-20T20:22:30;4.431762023601914;;;4.5;100.0
15558;BME280;7880;50.110;9.372;2023-12-20T20:27:22;4.431762023601914;;;4.5;100.0
15558;BME280;7880;50.110;9.372;2023-12-20T20:32:27;4.421678123256425;;;4.5;100.0
15558;BME280;7880;50.110;9.372;2023-12-20T20:37:40;4.431762023601914;;;4.5;100.0
15558;BME280;7880;50.110;9.372;2023-12-20T20:42:47;4.436803974211216;;;4.5;100.0
15558;BME280;7880;50.110;9.372;2023-12-20T20:48:14;4.467055683978833;;;4.562;100.0
15558;BME280;7880;50.110;9.372;2023-12-20T20:53:29;4.472097636625404;;;4.5;100.0
15558;BME280;7880;50.110;9.372;2023-12-20T20:58:40;4.502349358616629;;;4.562;100.0
15558;BME280;7880;50.110;9.372;2023-12-20T21:03:49;4.49730740422383;;;4.562;100.0
15558;BME280;7880;50.110;9.372;2023-12-20T21:08:47;4.492265450122067;;;4.562;100.0
15558;BME280;7880;50.110;9.372;2023-12-20T21:13:56;4.532601091085235;;;4.562;100.0
15558;BME280;7880;50.110;9.372;2023-12-20T21:19:04;4.517475223541259;;;4.562;100.0
15558;BME280;7880;50.110;9.372;2023-12-20T21:24:13;4.567894792207516;;;4.625;100.0
15558;BME280;7880;50.110;9.372;2023-12-20T21:29:12;4.583020668482641;;;4.625;100.0
15558;BME280;7880;50.110;9.372;2023-12-20T21:34:13;4.59814654737711;;;4.687;100.0
15558;BME280;7880;50.110;9.372;2023-12-20T21:39:27;4.648566162609495;;;4.687;100.0
15558;BME280;7880;50.110;9.372;2023-12-20T21:44:32;4.6031885075906755;;;4.687;100.0
15558;BME280;7880;50.110;9.372;2023-12-20T21:49:52;4.653608125733444;;;4.687;100.0
15558;BME280;7880;50.110;9.372;2023-12-20T21:55:00;4.628398313024081;;;4.687;100.0
15558;BME280;7880;50.110;9.372;2023-12-20T22:00:27;4.6989858069457116;;;4.75;100.0
15558;BME280;7880;50.110;9.372;2023-12-20T22:05:25;4.709069739305415;;;4.75;100.0
15558;BME280;7880;50.110;9.372;2023-12-20T22:10:26;4.7040277729800435;;;4.75;100.0
15558;BME280;7880;50.110;9.372;2023-12-20T22:15:31;4.688901875750162;;;4.75;100.0
15558;BME280;7880;50.110;9.372;2023-12-20T22:20:33;4.744363511732081;;;4.812;100.0
15558;BME280;7880;50.110;9.372;2023-12-20T22:25:37;4.734279575297842;;;4.812;100.0
15558;BME280;7880;50.110;9.372;2023-12-20T22:30:41;4.764531388093019;;;4.812;100.0
15558;BME280;7880;50.110;9.372;2023-12-20T22:36:25;4.739321543369442;;;4.812;100.0
15558;BME280;7880;50.110;9.372;2023-12-20T22:41:29;4.714111705921823;;;4.75;100.0
15558;BME280;7880;50.110;9.372;2023-12-20T22:46:30;4.739321543369442;;;4.812;100.0
15558;BME280;7880;50.110;9.372;2023-12-20T22:51:36;4.754447449330473;;;4.75;100.0
15558;BME280;7880;50.110;9.372;2023-12-20T22:56:41;4.749405480385758;;;4.812;100.0
15558;BME280;7880;50.110;9.372;2023-12-20T23:01:48;4.734279575297842;;;4.75;100.0
15558;BME280;7880;50.110;9.372;2023-12-20T23:07:12;4.714111705921823;;;4.812;100.0
15558;BME280;7880;50.110;9.372;2023-12-20T23:12:12;4.688901875750162;;;4.75;100.0
15558;BME280;7880;50.110;9.372;2023-12-20T23:17:15;4.633440274983878;;;4.75;100.0
15558;BME280;7880;50.110;9.372;2023-12-20T23:22:28;4.653608125733444;;;4.75;100.0
15558;BME280;7880;50.110;9.372;2023-12-20T23:27:47;4.643524199776584;;;4.75;100.0
15558;BME280;7880;50.110;9.372;2023-12-20T23:32:33;4.653608125733444;;;4.75;100.0
15558;BME280;7880;50.110;9.372;2023-12-20T23:37:43;4.643524199776584;;;4.75;100.0
15558;BME280;7880;50.110;9.372;2023-12-20T23:42:47;4.683859910588945;;;4.75;100.0
15558;BME280;7880;50.110;9.372;2023-12-20T23:47:51;4.668734016851522;;;4.75;100.0
15558;BME280;7880;50.110;9.372;2023-12-20T23:53:10;4.7040277729800435;;;4.75;100.0
15558;BME280;7880;50.110;9.372;2023-12-20T23:58:11;4.683859910588945;;;4.75;100.0
